createdAt,value
2018-03-31T00:02:17.395Z,55.90
2018-03-31T00:04:44.462Z,56.20
2018-03-31T00:07:10.929Z,56.50
2018-03-31T00:09:38.300Z,57.50
2018-03-31T00:12:04.341Z,58.00
2018-03-31T00:14:31.079Z,56.40
2018-03-31T00:16:57.587Z,56.40
2018-03-31T00:19:24.594Z,56.90
2018-03-31T00:21:50.642Z,56.90
2018-03-31T00:24:17.479Z,55.20
2018-03-31T00:26:44.288Z,57.60
2018-03-31T00:29:10.742Z,57.60
2018-03-31T00:31:37.578Z,57.00
2018-03-31T00:34:04.372Z,56.90
2018-03-31T00:36:31.334Z,57.00
2018-03-31T00:38:57.834Z,57.10
2018-03-31T00:41:24.768Z,56.90
2018-03-31T00:43:51.668Z,58.00
2018-03-31T00:46:17.713Z,58.00
2018-03-31T00:48:43.767Z,60.00
2018-03-31T00:51:10.524Z,61.80
2018-03-31T00:53:36.553Z,61.60
2018-03-31T00:56:02.570Z,63.80
2018-03-31T00:58:28.956Z,65.20
2018-03-31T01:00:55.770Z,65.80
2018-03-31T01:03:22.240Z,65.80
2018-03-31T01:05:49.238Z,66.00
2018-03-31T01:08:16.276Z,67.50
2018-03-31T01:10:42.809Z,67.50
2018-03-31T01:13:09.643Z,66.80
2018-03-31T01:15:36.981Z,66.60
2018-03-31T01:18:04.329Z,63.40
2018-03-31T01:20:31.408Z,65.30
2018-03-31T01:22:58.409Z,65.80
2018-03-31T01:25:25.286Z,66.90
2018-03-31T01:27:52.309Z,66.60
2018-03-31T01:30:19.552Z,65.00
2018-03-31T01:32:45.709Z,65.10
2018-03-31T01:35:12.699Z,64.80
2018-03-31T01:37:39.039Z,64.90
2018-03-31T01:40:05.853Z,66.00
2018-03-31T01:42:32.244Z,65.90
2018-03-31T01:44:59.512Z,65.50
2018-03-31T01:47:25.697Z,65.50
2018-03-31T01:49:51.927Z,66.00
2018-03-31T01:52:18.598Z,67.80
2018-03-31T01:54:45.382Z,65.20
2018-03-31T01:57:11.391Z,65.30
2018-03-31T01:59:38.115Z,70.30
2018-03-31T02:02:04.139Z,68.40
2018-03-31T02:04:30.163Z,66.00
2018-03-31T02:06:57.099Z,67.00
2018-03-31T02:09:23.941Z,67.00
2018-03-31T02:11:50.715Z,67.00
2018-03-31T02:14:18.231Z,67.60
2018-03-31T02:16:45.308Z,67.00
2018-03-31T02:19:12.915Z,68.70
2018-03-31T02:21:38.900Z,68.70
2018-03-31T02:24:05.003Z,71.20
2018-03-31T02:26:31.032Z,72.20
2018-03-31T02:28:57.085Z,72.90
2018-03-31T02:31:23.604Z,71.70
2018-03-31T02:33:50.444Z,71.20
2018-03-31T02:36:16.490Z,71.20
2018-03-31T02:38:42.507Z,70.40
2018-03-31T02:41:09.301Z,71.00
2018-03-31T02:43:35.537Z,72.90
2018-03-31T02:46:01.582Z,72.30
2018-03-31T02:48:27.788Z,73.40
2018-03-31T02:50:53.822Z,70.80
2018-03-31T02:53:20.072Z,72.60
2018-03-31T02:55:46.991Z,72.50
2018-03-31T02:58:13.716Z,72.40
2018-03-31T03:00:39.833Z,71.80
2018-03-31T03:03:06.436Z,71.00
2018-03-31T03:05:32.563Z,71.60
2018-03-31T03:07:58.598Z,71.00
2018-03-31T03:10:24.782Z,72.10
2018-03-31T03:12:51.405Z,73.40
2018-03-31T03:15:17.436Z,74.00
2018-03-31T03:17:43.898Z,72.50
2018-03-31T03:20:11.428Z,75.70
2018-03-31T03:22:37.457Z,75.70
2018-03-31T03:25:03.540Z,75.00
2018-03-31T03:27:30.305Z,76.30
2018-03-31T03:29:56.979Z,76.20
2018-03-31T03:32:22.982Z,76.50
2018-03-31T03:34:49.114Z,76.20
2018-03-31T03:37:15.717Z,75.70
2018-03-31T03:39:42.283Z,74.20
2018-03-31T03:42:08.308Z,74.80
2018-03-31T03:44:35.294Z,75.50
2018-03-31T03:47:03.036Z,75.30
2018-03-31T03:49:29.212Z,75.30
2018-03-31T03:51:55.375Z,76.20
2018-03-31T03:54:21.398Z,77.10
2018-03-31T03:56:47.678Z,76.00
2018-03-31T03:59:15.346Z,75.90
2018-03-31T04:01:42.491Z,76.00
2018-03-31T04:04:09.577Z,75.90
2018-03-31T04:06:36.549Z,75.40
2018-03-31T04:09:03.183Z,75.30
2018-03-31T04:11:29.472Z,74.40
2018-03-31T04:13:57.373Z,74.00
2018-03-31T04:16:24.149Z,73.90
2018-03-31T04:18:51.061Z,72.90
2018-03-31T04:21:17.630Z,72.90
2018-03-31T04:23:44.436Z,73.20
2018-03-31T04:26:10.935Z,73.20
2018-03-31T04:28:37.657Z,73.10
2018-03-31T04:31:03.661Z,73.60
2018-03-31T04:33:30.411Z,72.60
2018-03-31T04:35:57.755Z,73.70
2018-03-31T04:38:25.043Z,75.30
2018-03-31T04:40:52.118Z,75.10
2018-03-31T04:43:18.944Z,74.90
2018-03-31T04:45:45.221Z,74.80
2018-03-31T04:48:12.763Z,73.70
2018-03-31T04:50:39.197Z,73.60
2018-03-31T04:53:06.172Z,75.30
2018-03-31T04:55:33.676Z,75.60
2018-03-31T04:58:00.210Z,75.60
2018-03-31T05:00:27.021Z,76.30
2018-03-31T05:02:53.279Z,76.20
2018-03-31T05:05:20.262Z,74.50
2018-03-31T05:07:46.299Z,74.20
2018-03-31T05:10:13.477Z,74.90
2018-03-31T05:12:40.318Z,73.90
2018-03-31T05:15:07.305Z,73.90
2018-03-31T05:17:33.848Z,75.20
2018-03-31T05:19:59.963Z,74.90
2018-03-31T05:22:26.158Z,75.80
2018-03-31T05:24:52.465Z,75.80
2018-03-31T05:27:19.351Z,74.80
2018-03-31T05:29:46.110Z,74.70
2018-03-31T05:32:12.814Z,74.90
2018-03-31T05:34:39.299Z,77.00
2018-03-31T05:37:06.067Z,77.00
2018-03-31T05:39:32.523Z,77.00
2018-03-31T05:41:59.381Z,77.00
2018-03-31T05:44:25.937Z,76.90
2018-03-31T05:46:52.801Z,78.00
2018-03-31T05:49:19.954Z,77.60
2018-03-31T05:51:47.006Z,77.10
2018-03-31T05:54:13.979Z,76.00
2018-03-31T05:56:40.062Z,76.00
2018-03-31T05:59:06.975Z,77.20
2018-03-31T06:01:33.452Z,77.20
2018-03-31T06:04:00.210Z,78.70
2018-03-31T06:06:26.331Z,78.70
2018-03-31T06:08:52.759Z,77.40
2018-03-31T06:11:19.144Z,77.90
2018-03-31T06:13:46.115Z,77.00
2018-03-31T06:16:12.914Z,77.60
2018-03-31T06:18:39.358Z,77.60
2018-03-31T06:21:06.435Z,77.70
2018-03-31T06:23:32.419Z,77.60
2018-03-31T06:25:59.023Z,78.10
2018-03-31T06:28:26.424Z,80.20
2018-03-31T06:30:52.797Z,80.20
2018-03-31T06:33:18.842Z,80.30
2018-03-31T06:35:45.107Z,80.80
2018-03-31T06:38:12.492Z,80.40
2018-03-31T06:40:39.434Z,81.10
2018-03-31T06:43:05.466Z,80.90
2018-03-31T06:45:32.687Z,80.80
2018-03-31T06:47:59.479Z,80.20
2018-03-31T06:50:25.808Z,80.20
2018-03-31T06:52:53.479Z,81.40
2018-03-31T06:55:19.537Z,81.30
2018-03-31T06:57:46.101Z,81.30
2018-03-31T07:00:13.063Z,82.10
2018-03-31T07:02:39.147Z,82.10
2018-03-31T07:05:06.089Z,82.00
2018-03-31T07:07:32.411Z,82.20
2018-03-31T07:09:59.413Z,82.10
2018-03-31T07:12:26.033Z,81.90
2018-03-31T07:14:53.004Z,83.40
2018-03-31T07:17:19.116Z,83.30
2018-03-31T07:19:45.195Z,83.40
2018-03-31T07:22:11.231Z,82.90
2018-03-31T07:24:37.246Z,83.40
2018-03-31T07:27:03.516Z,83.30
2018-03-31T07:29:30.286Z,83.20
2018-03-31T07:31:56.855Z,83.20
2018-03-31T07:34:22.887Z,83.40
2018-03-31T07:36:49.482Z,83.90
2018-03-31T07:39:15.569Z,83.80
2018-03-31T07:41:43.165Z,84.70
2018-03-31T07:44:09.254Z,84.70
2018-03-31T07:46:36.056Z,84.20
2018-03-31T07:49:02.225Z,84.20
2018-03-31T07:51:29.711Z,83.50
2018-03-31T07:53:55.750Z,83.50
2018-03-31T07:56:21.840Z,83.30
2018-03-31T07:58:47.988Z,82.90
2018-03-31T08:01:14.003Z,83.60
2018-03-31T08:03:40.720Z,83.00
2018-03-31T08:06:07.325Z,84.00
2018-03-31T08:08:33.332Z,83.30
2018-03-31T08:10:59.344Z,83.50
2018-03-31T08:13:25.780Z,83.20
2018-03-31T08:15:52.633Z,83.60
2018-03-31T08:18:18.649Z,83.60
2018-03-31T08:20:45.040Z,83.40
2018-03-31T08:23:11.941Z,83.10
2018-03-31T08:25:38.499Z,83.10
2018-03-31T08:28:06.656Z,82.70
2018-03-31T08:30:32.920Z,82.70
2018-03-31T08:32:59.626Z,82.10
2018-03-31T08:35:25.734Z,82.60
2018-03-31T08:37:53.207Z,82.40
2018-03-31T08:40:19.225Z,81.60
2018-03-31T08:42:45.936Z,82.20
2018-03-31T08:45:11.979Z,82.20
2018-03-31T08:47:38.072Z,82.70
2018-03-31T08:50:04.753Z,82.70
2018-03-31T08:52:30.882Z,82.90
2018-03-31T08:54:57.501Z,83.40
2018-03-31T08:57:23.598Z,83.30
2018-03-31T08:59:49.674Z,83.50
2018-03-31T09:02:16.307Z,83.40
2018-03-31T09:04:43.565Z,83.70
2018-03-31T09:07:10.351Z,83.70
2018-03-31T09:09:36.991Z,83.80
2018-03-31T09:12:03.589Z,84.10
2018-03-31T09:14:31.178Z,83.50
2018-03-31T09:16:57.623Z,83.40
2018-03-31T09:19:23.637Z,82.90
2018-03-31T09:21:50.140Z,83.10
2018-03-31T09:24:17.638Z,82.90
2018-03-31T09:26:44.167Z,82.90
2018-03-31T09:29:11.123Z,82.80
2018-03-31T09:31:37.186Z,82.80
2018-03-31T09:34:03.191Z,82.70
2018-03-31T09:36:30.241Z,82.20
2018-03-31T09:38:56.920Z,82.90
2018-03-31T09:41:23.351Z,82.80
2018-03-31T09:43:49.466Z,82.70
2018-03-31T09:46:16.681Z,83.20
2018-03-31T09:48:43.895Z,82.90
2018-03-31T09:51:10.127Z,82.80
2018-03-31T09:53:37.118Z,83.10
2018-03-31T09:56:03.555Z,82.80
2018-03-31T09:58:31.328Z,82.80
2018-03-31T10:01:03.151Z,82.50
2018-03-31T10:03:29.229Z,82.50
2018-03-31T10:05:56.323Z,82.90
2018-03-31T10:08:22.998Z,82.80
2018-03-31T10:10:50.018Z,83.10
2018-03-31T10:13:17.029Z,82.50
2018-03-31T10:15:43.911Z,82.10
2018-03-31T10:18:09.929Z,82.00
2018-03-31T10:20:36.091Z,82.10
2018-03-31T10:23:02.892Z,82.00
2018-03-31T10:25:29.423Z,81.90
2018-03-31T10:27:56.214Z,82.30
2018-03-31T10:30:23.527Z,82.00
2018-03-31T10:32:50.215Z,82.00
2018-03-31T10:35:16.311Z,81.50
2018-03-31T10:37:42.299Z,81.00
2018-03-31T10:40:08.365Z,80.90
2018-03-31T10:42:35.808Z,80.40
2018-03-31T10:45:01.872Z,80.40
2018-03-31T10:47:27.910Z,80.10
2018-03-31T10:49:53.924Z,80.30
2018-03-31T10:52:20.584Z,80.20
2018-03-31T10:54:48.050Z,80.60
2018-03-31T10:57:14.616Z,80.50
2018-03-31T10:59:41.254Z,80.60
2018-03-31T11:02:08.052Z,80.90
2018-03-31T11:04:34.090Z,80.90
2018-03-31T11:07:00.738Z,80.50
2018-03-31T11:09:27.653Z,80.20
2018-03-31T11:11:53.757Z,80.20
2018-03-31T11:14:19.870Z,80.60
2018-03-31T11:16:46.696Z,80.20
2018-03-31T11:19:13.854Z,80.10
2018-03-31T11:21:40.886Z,79.50
2018-03-31T11:24:07.767Z,79.20
2018-03-31T11:26:33.832Z,79.20
2018-03-31T11:29:00.741Z,79.20
2018-03-31T11:31:26.819Z,78.50
2018-03-31T11:33:52.819Z,78.60
2018-03-31T11:36:19.418Z,78.60
2018-03-31T11:38:46.164Z,79.50
2018-03-31T11:41:12.848Z,79.00
2018-03-31T11:43:39.645Z,79.00
2018-03-31T11:46:05.686Z,78.90
2018-03-31T11:48:31.927Z,78.50
2018-03-31T11:50:58.796Z,79.00
2018-03-31T11:53:24.884Z,79.00
2018-03-31T11:55:51.167Z,78.50
2018-03-31T11:58:18.009Z,78.70
2018-03-31T12:00:44.998Z,78.70
2018-03-31T12:03:12.164Z,78.40
2018-03-31T12:05:39.426Z,78.50
2018-03-31T12:08:06.378Z,78.10
2018-03-31T12:10:32.524Z,78.10
2018-03-31T12:12:59.824Z,77.60
2018-03-31T12:15:27.448Z,77.20
2018-03-31T12:17:54.349Z,77.40
2018-03-31T12:20:20.700Z,77.40
2018-03-31T12:22:48.631Z,77.50
2018-03-31T12:25:14.828Z,77.50
2018-03-31T12:27:40.910Z,76.20
2018-03-31T12:30:07.952Z,76.50
2018-03-31T12:32:33.964Z,76.50
2018-03-31T12:35:00.272Z,76.90
2018-03-31T12:37:27.083Z,75.50
2018-03-31T12:39:53.559Z,75.50
2018-03-31T12:42:19.802Z,74.90
2018-03-31T12:44:45.865Z,74.70
2018-03-31T12:47:12.630Z,73.90
2018-03-31T12:49:39.052Z,73.80
2018-03-31T12:52:06.963Z,72.70
2018-03-31T12:54:33.397Z,72.70
2018-03-31T12:57:00.349Z,72.30
2018-03-31T12:59:26.951Z,72.40
2018-03-31T13:01:53.128Z,72.70
2018-03-31T13:04:20.102Z,72.60
2018-03-31T13:06:46.991Z,72.80
2018-03-31T13:09:12.996Z,72.80
2018-03-31T13:11:39.152Z,73.50
2018-03-31T13:14:05.366Z,73.70
2018-03-31T13:16:31.383Z,73.20
2018-03-31T13:18:58.282Z,72.50
2018-03-31T13:21:24.809Z,72.30
2018-03-31T13:23:51.049Z,71.80
2018-03-31T13:26:17.399Z,73.10
2018-03-31T13:28:44.234Z,72.90
2018-03-31T13:31:10.307Z,72.90
2018-03-31T13:33:36.310Z,71.80
2018-03-31T13:36:02.566Z,71.00
2018-03-31T13:38:29.611Z,72.10
2018-03-31T13:40:56.373Z,72.00
2018-03-31T13:43:22.441Z,71.80
2018-03-31T13:45:48.731Z,70.90
2018-03-31T13:48:14.796Z,71.50
2018-03-31T13:50:40.898Z,70.80
2018-03-31T13:53:07.911Z,71.10
2018-03-31T13:55:33.929Z,70.80
2018-03-31T13:58:01.901Z,70.70
2018-03-31T14:00:29.128Z,71.20
2018-03-31T14:02:55.985Z,70.70
2018-03-31T14:05:22.460Z,70.60
2018-03-31T14:07:49.324Z,70.60
2018-03-31T14:10:15.355Z,70.60
2018-03-31T14:12:42.512Z,70.60
2018-03-31T14:15:10.038Z,70.20
2018-03-31T14:17:36.951Z,69.00
2018-03-31T14:20:03.731Z,69.50
2018-03-31T14:22:30.342Z,68.70
2018-03-31T14:24:56.577Z,69.20
2018-03-31T14:27:22.677Z,69.30
2018-03-31T14:29:49.673Z,70.20
2018-03-31T14:32:16.493Z,68.70
2018-03-31T14:34:42.635Z,68.70
2018-03-31T14:37:09.495Z,70.10
2018-03-31T14:39:36.357Z,69.70
2018-03-31T14:42:02.617Z,69.70
2018-03-31T14:44:29.759Z,69.70
2018-03-31T14:46:56.921Z,69.40
2018-03-31T14:49:23.875Z,69.40
2018-03-31T14:51:50.354Z,69.10
2018-03-31T14:54:16.388Z,68.70
2018-03-31T14:56:43.168Z,67.80
2018-03-31T14:59:10.060Z,67.60
2018-03-31T15:01:37.064Z,68.00
2018-03-31T15:04:03.878Z,68.90
2018-03-31T15:06:30.931Z,68.90
2018-03-31T15:08:56.951Z,68.40
2018-03-31T15:11:24.369Z,67.00
2018-03-31T15:13:51.176Z,67.40
2018-03-31T15:16:17.986Z,67.40
2018-03-31T15:18:45.133Z,68.70
2018-03-31T15:21:12.022Z,68.30
2018-03-31T15:23:38.647Z,68.10
2018-03-31T15:26:04.663Z,67.60
2018-03-31T15:28:30.912Z,67.00
2018-03-31T15:30:58.101Z,66.60
2018-03-31T15:33:25.314Z,67.80
2018-03-31T15:35:51.761Z,67.70
2018-03-31T15:38:17.768Z,67.10
2018-03-31T15:40:44.623Z,67.00
2018-03-31T15:43:12.613Z,66.20
2018-03-31T15:45:38.638Z,66.10
2018-03-31T15:48:05.225Z,66.10
2018-03-31T15:50:31.956Z,66.70
2018-03-31T15:52:58.915Z,67.30
2018-03-31T15:55:25.731Z,67.00
2018-03-31T15:57:51.849Z,67.00
2018-03-31T16:00:18.661Z,67.20
2018-03-31T16:02:44.796Z,67.30
2018-03-31T16:07:44.082Z,67.50
2018-03-31T16:10:10.862Z,67.30
2018-03-31T16:12:37.048Z,67.30
2018-03-31T16:15:03.197Z,67.80
2018-03-31T16:17:30.060Z,68.10
2018-03-31T16:19:56.814Z,68.70
2018-03-31T16:22:23.218Z,68.10
2018-03-31T16:24:49.467Z,68.00
2018-03-31T16:27:16.496Z,68.60
2018-03-31T16:29:42.760Z,68.60
2018-03-31T16:32:09.777Z,70.40
2018-03-31T16:34:36.693Z,71.30
2018-03-31T16:37:02.767Z,71.30
2018-03-31T16:39:28.777Z,73.10
2018-03-31T16:41:55.936Z,74.90
2018-03-31T16:44:22.920Z,76.90
2018-03-31T16:46:49.748Z,76.30
2018-03-31T16:49:15.780Z,75.70
2018-03-31T16:51:42.273Z,74.20
2018-03-31T16:54:09.395Z,74.10
2018-03-31T16:56:36.217Z,74.60
2018-03-31T16:59:02.256Z,74.60
2018-03-31T17:01:28.916Z,74.10
2018-03-31T17:03:55.762Z,75.40
2018-03-31T17:06:22.566Z,75.50
2018-03-31T17:08:49.568Z,75.30
2018-03-31T17:11:16.015Z,75.50
2018-03-31T17:13:43.281Z,75.60
2018-03-31T17:16:11.206Z,75.40
2018-03-31T17:18:37.976Z,74.60
2018-03-31T17:21:04.505Z,74.60
2018-03-31T17:23:31.517Z,78.20
2018-03-31T17:25:58.647Z,78.60
2018-03-31T17:28:24.737Z,78.60
2018-03-31T17:30:50.762Z,79.50
2018-03-31T17:33:16.929Z,79.60
2018-03-31T17:35:43.582Z,78.40
2018-03-31T17:38:10.343Z,79.70
2018-03-31T17:40:36.372Z,79.70
2018-03-31T17:43:02.431Z,80.50
2018-03-31T17:45:28.562Z,78.70
2018-03-31T17:47:54.633Z,79.50
2018-03-31T17:50:21.659Z,78.20
2018-03-31T17:52:49.188Z,78.40
2018-03-31T17:55:15.717Z,78.20
2018-03-31T17:57:42.829Z,78.30
2018-03-31T18:00:10.331Z,78.50
2018-03-31T18:02:36.334Z,78.50
2018-03-31T18:05:02.641Z,78.40
2018-03-31T18:07:29.496Z,80.10
2018-03-31T18:09:55.599Z,80.10
2018-03-31T18:12:22.424Z,82.90
2018-03-31T18:14:49.305Z,81.10
2018-03-31T18:17:15.371Z,81.00
2018-03-31T18:19:41.589Z,80.20
2018-03-31T18:22:07.786Z,80.80
2018-03-31T18:24:34.056Z,82.30
2018-03-31T18:27:00.876Z,80.90
2018-03-31T18:29:27.056Z,80.60
2018-03-31T18:31:54.430Z,81.20
2018-03-31T18:34:21.670Z,80.80
2018-03-31T18:36:48.614Z,82.30
2018-03-31T18:39:14.686Z,82.20
2018-03-31T18:41:40.841Z,81.80
2018-03-31T18:44:07.047Z,81.60
2018-03-31T18:46:33.101Z,81.30
2018-03-31T18:48:59.872Z,81.00
2018-03-31T18:51:25.952Z,81.00
2018-03-31T18:53:52.495Z,81.50
2018-03-31T18:56:19.961Z,81.30
2018-03-31T18:58:46.757Z,81.40
2018-03-31T19:01:12.845Z,81.30
2018-03-31T19:03:38.996Z,83.00
2018-03-31T19:06:05.615Z,83.10
2018-03-31T19:08:32.364Z,81.70
2018-03-31T19:10:58.529Z,82.50
2018-03-31T19:13:27.239Z,83.30
2018-03-31T19:15:54.010Z,82.30
2018-03-31T19:18:20.095Z,82.30
2018-03-31T19:20:47.179Z,81.60
2018-03-31T19:23:13.298Z,81.50
2018-03-31T19:25:39.880Z,81.90
2018-03-31T19:28:06.237Z,82.10
2018-03-31T19:30:39.169Z,82.70
2018-03-31T19:33:05.275Z,82.60
2018-03-31T19:35:37.351Z,82.80
2018-03-31T19:38:03.429Z,82.10
2018-03-31T19:40:30.221Z,82.50
2018-03-31T19:42:56.423Z,81.90
2018-03-31T19:45:24.671Z,81.60
2018-03-31T19:47:50.703Z,81.60
2018-03-31T19:50:16.816Z,81.70
2018-03-31T19:52:42.888Z,82.40
2018-03-31T19:55:09.866Z,82.00
2018-03-31T19:57:36.453Z,82.50
2018-03-31T20:00:03.474Z,81.90
2018-03-31T20:02:30.280Z,82.40
2018-03-31T20:04:56.447Z,82.40
2018-03-31T20:07:23.933Z,81.70
2018-03-31T20:09:50.132Z,81.70
2018-03-31T20:12:16.931Z,82.20
2018-03-31T20:14:43.077Z,82.20
2018-03-31T20:17:09.823Z,81.60
2018-03-31T20:19:36.217Z,81.80
2018-03-31T20:22:03.648Z,81.20
2018-03-31T20:24:30.120Z,81.20
2018-03-31T20:26:57.216Z,81.10
2018-03-31T20:29:24.050Z,80.90
2018-03-31T20:31:50.242Z,80.80
2018-03-31T20:34:16.784Z,80.70
2018-03-31T20:36:43.773Z,80.40
2018-03-31T20:39:10.710Z,80.30
2018-03-31T20:41:38.281Z,80.20
2018-03-31T20:44:04.810Z,80.20
2018-03-31T20:46:31.613Z,80.60
2018-03-31T20:48:58.447Z,80.20
2018-03-31T20:51:24.943Z,80.20
2018-03-31T20:53:51.680Z,80.60
2018-03-31T20:56:18.227Z,80.70
2018-03-31T20:58:44.404Z,80.90
2018-03-31T21:01:11.601Z,80.70
2018-03-31T21:03:38.886Z,80.80
2018-03-31T21:06:05.751Z,81.00
2018-03-31T21:08:32.257Z,80.90
2018-03-31T21:10:59.779Z,81.40
2018-03-31T21:13:26.442Z,81.40
2018-03-31T21:15:53.656Z,81.20
2018-03-31T21:18:21.162Z,81.20
2018-03-31T21:20:47.252Z,81.00
2018-03-31T21:23:13.430Z,81.10
2018-03-31T21:25:40.142Z,81.40
2018-03-31T21:28:06.274Z,81.10
2018-03-31T21:30:33.084Z,81.20
2018-03-31T21:33:00.138Z,79.20
2018-03-31T21:35:26.878Z,76.40
2018-03-31T21:37:53.086Z,76.90
2018-03-31T21:40:19.903Z,74.80
2018-03-31T21:42:46.260Z,74.80
2018-03-31T21:45:13.116Z,73.90
2018-03-31T21:47:39.156Z,73.10
2018-03-31T21:50:05.265Z,73.10
2018-03-31T21:52:31.355Z,74.50
2018-03-31T21:54:57.693Z,74.90
2018-03-31T21:57:24.541Z,75.20
2018-03-31T21:59:51.325Z,75.80
2018-03-31T22:02:18.212Z,75.70
2018-03-31T22:04:44.262Z,74.90
2018-03-31T22:07:10.365Z,75.40
2018-03-31T22:09:36.394Z,75.70
2018-03-31T22:12:03.319Z,75.40
2018-03-31T22:14:36.187Z,75.40
2018-03-31T22:17:02.743Z,75.30
2018-03-31T22:19:29.536Z,75.20
2018-03-31T22:21:56.073Z,75.10
2018-03-31T22:24:23.463Z,74.70
2018-03-31T22:26:49.565Z,74.70
2018-03-31T22:29:15.572Z,75.00
2018-03-31T22:31:41.725Z,75.40
2018-03-31T22:34:07.883Z,75.60
2018-03-31T22:36:34.665Z,75.60
2018-03-31T22:39:01.217Z,75.60
2018-03-31T22:41:28.042Z,75.40
2018-03-31T22:43:54.546Z,75.00
2018-03-31T22:46:21.479Z,76.00
2018-03-31T22:48:48.859Z,75.40
2018-03-31T22:51:14.882Z,75.40
2018-03-31T22:53:41.136Z,75.50
2018-03-31T22:56:07.223Z,75.40
2018-03-31T22:58:33.416Z,76.40
2018-03-31T23:00:59.685Z,77.60
2018-03-31T23:03:26.724Z,77.70
2018-03-31T23:05:53.518Z,77.40
2018-03-31T23:08:20.102Z,77.40
2018-03-31T23:10:46.144Z,78.30
2018-03-31T23:13:12.612Z,79.10
2018-03-31T23:15:39.676Z,80.70
2018-03-31T23:18:07.077Z,81.30
2018-03-31T23:20:33.319Z,81.30
2018-03-31T23:23:00.208Z,81.70
2018-03-31T23:25:27.176Z,82.20
2018-03-31T23:27:55.061Z,83.10
2018-03-31T23:30:21.098Z,83.10
2018-03-31T23:32:47.212Z,82.70
2018-03-31T23:35:13.812Z,83.40
2018-03-31T23:37:39.861Z,83.70
2018-03-31T23:40:05.939Z,82.30
2018-03-31T23:42:33.047Z,81.80
2018-03-31T23:44:59.186Z,81.40
2018-03-31T23:47:25.260Z,80.80
2018-03-31T23:49:51.521Z,80.40
2018-03-31T23:52:18.431Z,80.10
2018-03-31T23:54:45.572Z,79.60
2018-03-31T23:57:12.548Z,79.70
2018-03-31T23:59:38.671Z,79.70
